Southport, California
Current Conditions -  °F | °C
As of 5:53 AM on Sunday 25 Jan 2015 (Local Time) from KSAC Reporting Station
Haze Haze  
Wind Chill: 44°   Ceiling: 300
Heat Index: 44°   Visibility: 1.5mi
Dew Point: 42°   Wind: 0mph
Humidity: 93%   Direction: NA
Pressure: 30.2"   Gusts: NA
Location:  38.5256°N, 121.556°W
Report Text: KSAC 251353Z 00000KT 1 1/2SM BR OVC003 07/06 A3020 RMK AO2 SLP225 T00670056
Loading
Personal Weather Stations






























Interactive Weather Map New forecast layout! Learn more

10-Day Weather Forecast

Advertisements
Track Severe Weather on mobile